Terminal Aerodrome Forecast
Issued by NWS Duluth, MN

Home | Current Version | Previous Version | Text Only | Print | Product List | Glossary On
Versions: 1 2 3 4 5 6 7 8 9 10 11 12 13 14 15 16 17 18 19 20 21 22 23 24
075
FTUS43 KDLH 260658 AAA
TAFINL
TAF AMD
KINL 260658Z 2607/2706 14006KT P6SM VCSH OVC040
     FM261400 15008KT P6SM VCSH BKN030 OVC040
     FM261600 16008KT P6SM VCSH BKN030 OVC040
     FM261800 20008KT P6SM VCSH OVC025=

USA.gov is the U.S. government's official web portal to all federal, state and local government web resources and services.